Time;durP1;ratioP1;P1;durP2;ratioP2;P2;SDS_P1;SDS_P2;PMS_P1;PMS_P2;Temp;Humidity;BMP_temperature;BMP_pressure;BME280_temperature;BME280_humidity;BME280_pressure;Samples;Min_cycle;Max_cycle;Signal;HPM_P1;HPM_P2
2024/04/02 00:00:16;;;;;;;10.03;9.83;;;;;;;;;;5097533;28;20468;-69
2024/04/02 00:02:43;;;;;;;10.97;10.67;;;;;;;;;;5102435;28;20951;-68
2024/04/02 00:05:10;;;;;;;9.50;9.30;;;;;;;;;;5100995;28;20466;-69
2024/04/02 00:07:37;;;;;;;9.17;8.97;;;;;;;;;;5099225;28;20483;-68
2024/04/02 00:10:07;;;;;;;9.60;9.40;;;;;;;;;;5100937;28;20709;-69
2024/04/02 00:12:33;;;;;;;9.60;9.40;;;;;;;;;;5108071;27;20879;-68
2024/04/02 00:15:05;;;;;;;9.40;9.20;;;;;;;;;;5095159;27;20964;-69
2024/04/02 00:17:33;;;;;;;8.67;8.57;;;;;;;;;;5106428;28;20485;-68
2024/04/02 00:20:00;;;;;;;9.63;9.43;;;;;;;;;;5105899;28;20886;-69
2024/04/02 00:22:27;;;;;;;9.87;9.67;;;;;;;;;;5101402;28;20477;-69
2024/04/02 00:24:54;;;;;;;9.70;9.50;;;;;;;;;;5102744;28;20802;-70
2024/04/02 00:27:20;;;;;;;9.30;9.10;;;;;;;;;;5100966;28;20466;-68
2024/04/02 00:29:47;;;;;;;9.03;8.83;;;;;;;;;;5102630;28;20559;-69
2024/04/02 00:32:13;;;;;;;9.50;9.30;;;;;;;;;;5098249;28;21081;-69
2024/04/02 00:34:46;;;;;;;9.20;9.00;;;;;;;;;;5108687;28;20560;-69
2024/04/02 00:37:12;;;;;;;9.03;8.83;;;;;;;;;;5094810;28;20985;-68
2024/04/02 00:39:39;;;;;;;9.57;9.37;;;;;;;;;;5104465;28;20461;-69
2024/04/02 00:42:06;;;;;;;9.20;9.00;;;;;;;;;;5108583;28;20825;-69
2024/04/02 00:44:35;;;;;;;9.10;8.90;;;;;;;;;;5107692;28;20457;-67
2024/04/02 00:47:01;;;;;;;9.00;8.80;;;;;;;;;;5101391;28;20886;-69
2024/04/02 00:49:28;;;;;;;9.30;9.10;;;;;;;;;;5098696;28;20467;-70
2024/04/02 00:51:56;;;;;;;9.17;8.97;;;;;;;;;;5098636;28;20953;-67
2024/04/02 00:54:24;;;;;;;9.23;9.03;;;;;;;;;;5096928;28;20546;-69
2024/04/02 00:56:51;;;;;;;8.40;8.30;;;;;;;;;;5104324;28;20470;-68
2024/04/02 00:59:17;;;;;;;9.30;9.10;;;;;;;;;;5084811;28;20465;-69
2024/04/02 01:01:45;;;;;;;9.40;9.20;;;;;;;;;;5068334;28;20466;-69
2024/04/02 01:04:11;;;;;;;9.10;8.90;;;;;;;;;;5070849;28;20454;-69
2024/04/02 01:06:39;;;;;;;9.30;9.10;;;;;;;;;;5068051;28;22474;-69
2024/04/02 01:09:07;;;;;;;9.27;9.07;;;;;;;;;;5069878;28;20461;-69
2024/04/02 01:11:34;;;;;;;9.93;9.73;;;;;;;;;;5069458;28;20461;-68
2024/04/02 01:14:00;;;;;;;9.30;9.10;;;;;;;;;;5054717;28;20509;-68
2024/04/02 01:16:27;;;;;;;9.53;9.33;;;;;;;;;;5049855;28;20665;-70
2024/04/02 01:18:54;;;;;;;9.53;9.33;;;;;;;;;;5050243;28;20988;-69
2024/04/02 01:21:21;;;;;;;9.47;9.27;;;;;;;;;;5050570;28;21172;-70
2024/04/02 01:23:47;;;;;;;9.37;9.17;;;;;;;;;;5049652;28;20458;-70
2024/04/02 01:26:16;;;;;;;8.83;8.73;;;;;;;;;;5049138;28;20478;-69
2024/04/02 01:28:42;;;;;;;9.80;9.60;;;;;;;;;;5050231;28;20459;-70
2024/04/02 01:31:09;;;;;;;9.30;9.10;;;;;;;;;;5053840;28;20513;-69
2024/04/02 01:33:35;;;;;;;9.87;9.67;;;;;;;;;;5051892;28;20527;-68
2024/04/02 01:36:03;;;;;;;9.70;9.50;;;;;;;;;;5052726;28;21116;-69
2024/04/02 01:38:29;;;;;;;10.37;10.17;;;;;;;;;;5053147;28;20847;-70
2024/04/02 01:40:56;;;;;;;9.70;9.50;;;;;;;;;;5053958;28;20470;-69
2024/04/02 01:43:23;;;;;;;10.10;9.90;;;;;;;;;;5051426;28;20477;-68
2024/04/02 01:45:51;;;;;;;9.83;9.63;;;;;;;;;;5054465;28;20668;-70
2024/04/02 01:48:17;;;;;;;10.30;10.10;;;;;;;;;;5051665;28;20470;-70
2024/04/02 01:50:44;;;;;;;10.57;10.37;;;;;;;;;;5054191;28;20801;-70
2024/04/02 01:53:10;;;;;;;10.33;10.13;;;;;;;;;;5053821;28;20502;-68
2024/04/02 01:55:38;;;;;;;9.90;9.70;;;;;;;;;;5054169;28;20503;-69
2024/04/02 01:58:04;;;;;;;10.80;10.60;;;;;;;;;;5053549;28;20474;-70
2024/04/02 02:00:32;;;;;;;10.70;10.50;;;;;;;;;;5083716;28;20469;-69
2024/04/02 02:02:59;;;;;;;10.20;10.00;;;;;;;;;;5079015;28;20455;-70
2024/04/02 02:05:26;;;;;;;9.97;9.77;;;;;;;;;;5081347;28;20469;-70
2024/04/02 02:07:52;;;;;;;9.43;9.23;;;;;;;;;;5078438;28;20466;-70
2024/04/02 02:10:25;;;;;;;10.60;10.40;;;;;;;;;;5076980;28;20568;-68
2024/04/02 02:12:51;;;;;;;10.73;10.50;;;;;;;;;;5086293;28;20482;-70
2024/04/02 02:15:18;;;;;;;10.30;10.10;;;;;;;;;;5083568;28;20554;-70
2024/04/02 02:17:47;;;;;;;10.50;10.30;;;;;;;;;;5089597;28;20786;-69
2024/04/02 02:20:14;;;;;;;9.93;9.73;;;;;;;;;;5087646;28;20474;-70
2024/04/02 02:22:41;;;;;;;10.00;9.80;;;;;;;;;;5090214;28;20463;-69
2024/04/02 02:25:08;;;;;;;9.80;9.60;;;;;;;;;;5085292;28;20469;-69
2024/04/02 02:27:34;;;;;;;9.80;9.60;;;;;;;;;;5085621;28;20465;-70
2024/04/02 02:30:02;;;;;;;9.90;9.70;;;;;;;;;;5091370;28;20551;-69
2024/04/02 02:32:29;;;;;;;9.53;9.33;;;;;;;;;;5087631;28;20485;-70
2024/04/02 02:34:57;;;;;;;9.20;9.00;;;;;;;;;;5087677;28;20800;-69
2024/04/02 02:37:23;;;;;;;9.73;9.53;;;;;;;;;;5091330;28;20462;-69
2024/04/02 02:39:51;;;;;;;9.67;9.47;;;;;;;;;;5089674;28;20550;-68
2024/04/02 02:42:17;;;;;;;9.07;8.87;;;;;;;;;;5079298;28;20463;-69
2024/04/02 02:44:46;;;;;;;8.60;8.50;;;;;;;;;;5083095;28;20464;-69
2024/04/02 02:47:12;;;;;;;8.50;8.40;;;;;;;;;;5083000;28;20645;-70
2024/04/02 02:49:39;;;;;;;8.40;8.30;;;;;;;;;;5088664;28;20507;-69
2024/04/02 02:52:07;;;;;;;8.33;8.23;;;;;;;;;;5090572;28;20558;-69
2024/04/02 02:54:34;;;;;;;8.40;8.30;;;;;;;;;;5089351;28;20495;-69
2024/04/02 02:57:00;;;;;;;7.90;7.80;;;;;;;;;;5078930;28;20474;-69
2024/04/02 02:59:27;;;;;;;7.70;7.60;;;;;;;;;;5088224;28;20512;-68
2024/04/02 03:01:53;;;;;;;7.90;7.80;;;;;;;;;;5095063;28;20451;-70
2024/04/02 03:04:21;;;;;;;8.37;8.27;;;;;;;;;;5090819;28;21004;-70
2024/04/02 03:06:47;;;;;;;8.80;8.70;;;;;;;;;;5087959;28;20609;-70
2024/04/02 03:09:16;;;;;;;8.07;7.97;;;;;;;;;;5080135;28;20492;-70
2024/04/02 03:11:42;;;;;;;7.37;7.27;;;;;;;;;;5090325;28;20463;-69
2024/04/02 03:14:09;;;;;;;7.17;7.07;;;;;;;;;;5095426;28;20542;-70
2024/04/02 03:16:35;;;;;;;8.03;7.93;;;;;;;;;;5106265;28;20548;-70
2024/04/02 03:19:03;;;;;;;7.50;7.40;;;;;;;;;;5103157;28;20497;-70
2024/04/02 03:21:29;;;;;;;7.73;7.63;;;;;;;;;;5103305;28;20453;-69
2024/04/02 03:23:57;;;;;;;7.50;7.40;;;;;;;;;;5103317;28;20454;-68
2024/04/02 03:26:25;;;;;;;8.20;8.10;;;;;;;;;;5105239;28;20509;-68
2024/04/02 03:28:52;;;;;;;7.60;7.50;;;;;;;;;;5097204;28;20470;-68
2024/04/02 03:31:18;;;;;;;7.73;7.63;;;;;;;;;;5107142;28;20458;-70
2024/04/02 03:33:45;;;;;;;8.10;8.00;;;;;;;;;;5099442;28;20867;-70
2024/04/02 03:36:11;;;;;;;7.47;7.37;;;;;;;;;;5105261;28;20459;-70
2024/04/02 03:38:39;;;;;;;7.97;7.87;;;;;;;;;;5110331;28;20978;-69
2024/04/02 03:41:09;;;;;;;7.63;7.53;;;;;;;;;;5104123;28;20455;-69
2024/04/02 03:43:37;;;;;;;7.40;7.30;;;;;;;;;;5107900;28;20459;-69
2024/04/02 03:46:05;;;;;;;7.47;7.37;;;;;;;;;;5101146;27;21873;-68
2024/04/02 03:48:31;;;;;;;7.67;7.57;;;;;;;;;;5103701;28;20839;-69
2024/04/02 03:50:58;;;;;;;8.00;7.90;;;;;;;;;;5109530;28;21237;-70
2024/04/02 03:53:24;;;;;;;8.00;7.90;;;;;;;;;;5106835;28;20482;-70
2024/04/02 03:55:58;;;;;;;8.33;8.23;;;;;;;;;;5103718;28;20835;-68
2024/04/02 03:58:24;;;;;;;8.50;8.40;;;;;;;;;;5104014;28;20466;-69
2024/04/02 04:00:54;;;;;;;9.50;9.30;;;;;;;;;;5106584;28;20461;-69
2024/04/02 04:03:20;;;;;;;10.77;10.50;;;;;;;;;;5106622;28;20462;-68
2024/04/02 04:05:47;;;;;;;10.93;10.63;;;;;;;;;;5097443;28;20466;-70
2024/04/02 04:08:13;;;;;;;10.77;10.47;;;;;;;;;;5105501;28;20974;-70
2024/04/02 04:10:41;;;;;;;11.87;11.57;;;;;;;;;;5106738;28;20487;-68
2024/04/02 04:13:07;;;;;;;11.63;11.33;;;;;;;;;;5105960;28;21943;-69
2024/04/02 04:15:34;;;;;;;11.47;11.17;;;;;;;;;;5101291;28;20465;-69
2024/04/02 04:18:03;;;;;;;11.37;11.07;;;;;;;;;;5102488;28;20485;-70
2024/04/02 04:20:30;;;;;;;11.63;11.33;;;;;;;;;;5099842;28;20456;-69
2024/04/02 04:22:58;;;;;;;10.87;10.57;;;;;;;;;;5094171;28;20473;-70
2024/04/02 04:25:24;;;;;;;10.40;10.20;;;;;;;;;;5105858;28;20956;-69
2024/04/02 04:27:51;;;;;;;10.97;10.67;;;;;;;;;;5106288;28;20466;-70
2024/04/02 04:30:18;;;;;;;10.87;10.57;;;;;;;;;;5101171;28;20462;-69
2024/04/02 04:32:46;;;;;;;10.40;10.20;;;;;;;;;;5109785;28;20485;-70
2024/04/02 04:35:13;;;;;;;10.00;9.80;;;;;;;;;;5107236;28;20463;-70
2024/04/02 04:37:40;;;;;;;9.83;9.63;;;;;;;;;;5109406;28;20555;-68
2024/04/02 04:40:07;;;;;;;10.00;9.80;;;;;;;;;;5101906;28;20465;-69
2024/04/02 04:42:34;;;;;;;10.10;9.90;;;;;;;;;;5102818;28;20469;-69
2024/04/02 04:45:00;;;;;;;9.97;9.77;;;;;;;;;;5102387;28;20494;-70
2024/04/02 04:47:27;;;;;;;9.43;9.23;;;;;;;;;;5109484;28;20488;-69
2024/04/02 04:49:54;;;;;;;9.13;8.93;;;;;;;;;;5109057;28;20575;-70
2024/04/02 04:52:22;;;;;;;8.90;8.70;;;;;;;;;;5099617;28;20501;-70
2024/04/02 04:54:49;;;;;;;9.20;9.00;;;;;;;;;;5105754;28;20863;-70
2024/04/02 04:57:16;;;;;;;8.63;8.53;;;;;;;;;;5103824;28;20964;-69
2024/04/02 04:59:43;;;;;;;9.00;8.80;;;;;;;;;;5097143;28;20466;-70
2024/04/02 05:02:10;;;;;;;8.97;8.77;;;;;;;;;;5103194;28;20467;-70
2024/04/02 05:04:37;;;;;;;8.57;8.47;;;;;;;;;;5108815;28;20468;-71
2024/04/02 05:07:04;;;;;;;9.67;9.47;;;;;;;;;;5098137;28;20972;-69
2024/04/02 05:09:31;;;;;;;9.70;9.50;;;;;;;;;;5102910;28;20481;-69
2024/04/02 05:11:59;;;;;;;9.50;9.30;;;;;;;;;;5106952;28;20485;-70
2024/04/02 05:14:25;;;;;;;9.70;9.50;;;;;;;;;;5095406;28;20498;-70
2024/04/02 05:16:52;;;;;;;9.60;9.40;;;;;;;;;;5089866;28;20546;-70
2024/04/02 05:19:18;;;;;;;9.47;9.27;;;;;;;;;;5091088;28;20816;-69
2024/04/02 05:21:45;;;;;;;9.70;9.50;;;;;;;;;;5084446;28;20471;-70
2024/04/02 05:24:12;;;;;;;9.90;9.70;;;;;;;;;;5077012;28;20466;-70
2024/04/02 05:26:41;;;;;;;10.07;9.87;;;;;;;;;;5090183;28;20823;-69
2024/04/02 05:29:07;;;;;;;10.07;9.87;;;;;;;;;;5091493;28;20464;-69
2024/04/02 05:31:34;;;;;;;10.40;10.20;;;;;;;;;;5091805;28;20493;-68
2024/04/02 05:34:00;;;;;;;9.90;9.70;;;;;;;;;;5081665;28;20492;-69
2024/04/02 05:36:27;;;;;;;10.60;10.37;;;;;;;;;;5081779;28;20453;-68
2024/04/02 05:38:54;;;;;;;11.27;10.97;;;;;;;;;;5087367;28;21022;-69
2024/04/02 05:41:21;;;;;;;10.57;10.37;;;;;;;;;;5090667;28;20469;-70
2024/04/02 05:43:48;;;;;;;10.30;10.10;;;;;;;;;;5076500;28;20815;-70
2024/04/02 05:46:15;;;;;;;10.83;10.53;;;;;;;;;;5089577;28;20458;-69
2024/04/02 05:48:42;;;;;;;10.90;10.60;;;;;;;;;;5084935;28;20464;-69
2024/04/02 05:51:09;;;;;;;11.00;10.70;;;;;;;;;;5084517;28;20850;-68
2024/04/02 05:53:36;;;;;;;10.73;10.50;;;;;;;;;;5081169;28;20579;-70
2024/04/02 05:56:05;;;;;;;10.77;10.47;;;;;;;;;;5082199;28;20465;-70
2024/04/02 05:58:31;;;;;;;10.90;10.60;;;;;;;;;;5080329;28;20499;-70
2024/04/02 06:01:07;;;;;;;10.67;10.43;;;;;;;;;;5080531;28;20463;-69
2024/04/02 06:03:33;;;;;;;10.40;10.20;;;;;;;;;;5082546;28;20465;-71
2024/04/02 06:06:01;;;;;;;10.87;10.57;;;;;;;;;;5083001;28;20469;-70
2024/04/02 06:08:27;;;;;;;11.30;11.00;;;;;;;;;;5083140;28;20463;-70
2024/04/02 06:10:54;;;;;;;11.27;10.97;;;;;;;;;;5077676;28;20483;-70
2024/04/02 06:13:21;;;;;;;11.37;11.07;;;;;;;;;;5088834;28;20570;-70
2024/04/02 06:15:48;;;;;;;11.77;11.47;;;;;;;;;;5103259;28;20518;-69
2024/04/02 06:18:16;;;;;;;12.03;11.73;;;;;;;;;;5104042;28;20953;-70
2024/04/02 06:20:43;;;;;;;12.23;11.93;;;;;;;;;;5098591;28;20554;-70
2024/04/02 06:23:09;;;;;;;12.10;11.80;;;;;;;;;;5100263;28;20565;-70
2024/04/02 06:25:37;;;;;;;11.90;11.60;;;;;;;;;;5100642;28;20469;-70
2024/04/02 06:28:03;;;;;;;12.10;11.80;;;;;;;;;;5102334;28;20493;-70
2024/04/02 06:30:30;;;;;;;12.10;11.80;;;;;;;;;;5106607;28;20484;-70
2024/04/02 06:32:57;;;;;;;12.20;11.90;;;;;;;;;;5103849;28;20451;-71
2024/04/02 06:35:25;;;;;;;12.40;12.07;;;;;;;;;;5102461;28;20827;-68
2024/04/02 06:37:52;;;;;;;12.23;11.93;;;;;;;;;;5097570;28;20450;-69
2024/04/02 06:40:19;;;;;;;12.43;12.07;;;;;;;;;;5096588;28;20465;-69
2024/04/02 06:42:46;;;;;;;12.77;12.37;;;;;;;;;;5092162;28;20470;-70
2024/04/02 06:45:13;;;;;;;13.13;12.73;;;;;;;;;;5096324;28;20457;-69
2024/04/02 06:47:39;;;;;;;13.27;12.87;;;;;;;;;;5096534;28;20833;-70
2024/04/02 06:50:06;;;;;;;13.27;12.87;;;;;;;;;;5105194;28;20466;-68
2024/04/02 06:52:34;;;;;;;13.23;12.83;;;;;;;;;;5103052;28;20860;-70
2024/04/02 06:55:01;;;;;;;13.30;12.90;;;;;;;;;;5101355;28;20492;-71
2024/04/02 06:57:27;;;;;;;13.53;13.13;;;;;;;;;;5111224;28;20468;-70
2024/04/02 06:59:54;;;;;;;13.70;13.30;;;;;;;;;;5100290;28;20518;-70
2024/04/02 07:02:20;;;;;;;14.13;13.63;;;;;;;;;;5107623;28;20466;-70
2024/04/02 07:04:48;;;;;;;13.73;13.33;;;;;;;;;;5111166;28;20550;-71
2024/04/02 07:07:14;;;;;;;13.87;13.40;;;;;;;;;;5108027;28;20475;-69
2024/04/02 07:09:43;;;;;;;14.23;13.73;;;;;;;;;;5102054;28;20508;-69
2024/04/02 07:12:10;;;;;;;14.10;13.60;;;;;;;;;;5099088;27;20469;-72
2024/04/02 07:14:38;;;;;;;13.73;13.30;;;;;;;;;;5113066;27;20493;-70
2024/04/02 07:17:04;;;;;;;14.30;13.80;;;;;;;;;;5108997;28;20467;-69
2024/04/02 07:19:31;;;;;;;14.47;13.97;;;;;;;;;;5106334;28;20464;-70
2024/04/02 07:21:57;;;;;;;13.97;13.47;;;;;;;;;;5104051;28;20458;-70
2024/04/02 07:24:25;;;;;;;14.87;14.37;;;;;;;;;;5103760;27;20547;-71
2024/04/02 07:26:53;;;;;;;15.13;14.53;;;;;;;;;;5105387;27;20466;-69
2024/04/02 07:29:20;;;;;;;15.47;14.87;;;;;;;;;;5107814;28;20464;-70
2024/04/02 07:31:46;;;;;;;14.80;14.30;;;;;;;;;;5106616;28;20450;-70
2024/04/02 07:34:13;;;;;;;15.10;14.50;;;;;;;;;;5108759;27;20502;-71
2024/04/02 07:36:39;;;;;;;15.17;14.57;;;;;;;;;;5100311;28;20623;-69
2024/04/02 07:39:06;;;;;;;15.30;14.70;;;;;;;;;;5107591;28;20464;-70
2024/04/02 07:41:32;;;;;;;14.70;14.20;;;;;;;;;;5094408;28;20474;-71
2024/04/02 07:44:01;;;;;;;14.73;14.23;;;;;;;;;;5103095;28;20550;-70
2024/04/02 07:46:27;;;;;;;14.83;14.33;;;;;;;;;;5107124;28;20466;-70
2024/04/02 07:48:54;;;;;;;15.07;14.47;;;;;;;;;;5111071;28;20591;-70
2024/04/02 07:51:20;;;;;;;14.93;14.43;;;;;;;;;;5112177;28;20450;-72
2024/04/02 07:53:47;;;;;;;14.97;14.43;;;;;;;;;;5101216;28;20495;-69
2024/04/02 07:56:13;;;;;;;15.00;14.50;;;;;;;;;;5100851;28;20678;-69
2024/04/02 07:58:41;;;;;;;15.10;14.50;;;;;;;;;;5107430;28;20477;-69
2024/04/02 08:01:09;;;;;;;15.13;14.57;;;;;;;;;;5101738;28;20499;-69
2024/04/02 08:03:36;;;;;;;14.60;14.10;;;;;;;;;;5110161;28;20472;-70
2024/04/02 08:06:03;;;;;;;14.80;14.30;;;;;;;;;;5113963;28;20962;-70
2024/04/02 08:08:30;;;;;;;14.67;14.17;;;;;;;;;;5102909;27;20495;-69
2024/04/02 08:10:56;;;;;;;14.53;14.03;;;;;;;;;;5110487;28;20774;-69
2024/04/02 08:13:23;;;;;;;14.73;14.23;;;;;;;;;;5105710;27;20583;-68
2024/04/02 08:15:49;;;;;;;14.73;14.23;;;;;;;;;;5103638;28;20456;-68
2024/04/02 08:18:18;;;;;;;14.33;13.83;;;;;;;;;;5101206;28;20561;-69
2024/04/02 08:20:44;;;;;;;14.30;13.80;;;;;;;;;;5094493;28;20469;-69
2024/04/02 08:23:11;;;;;;;14.20;13.70;;;;;;;;;;5096711;28;20462;-70
2024/04/02 08:25:38;;;;;;;14.90;14.40;;;;;;;;;;5092400;28;20459;-69
2024/04/02 08:28:06;;;;;;;15.00;14.50;;;;;;;;;;5093591;28;20769;-71
2024/04/02 08:30:32;;;;;;;14.40;13.90;;;;;;;;;;5097929;28;20460;-68
2024/04/02 08:32:59;;;;;;;14.87;14.37;;;;;;;;;;5096044;28;20476;-68
2024/04/02 08:35:27;;;;;;;14.67;14.17;;;;;;;;;;5100509;28;20495;-69
2024/04/02 08:37:54;;;;;;;14.90;14.40;;;;;;;;;;5094108;28;20544;-68
2024/04/02 08:40:21;;;;;;;14.70;14.20;;;;;;;;;;5092438;28;20549;-68
2024/04/02 08:42:49;;;;;;;14.80;14.30;;;;;;;;;;5089378;28;20537;-70
2024/04/02 08:45:17;;;;;;;14.70;14.20;;;;;;;;;;5091346;28;20464;-70
2024/04/02 08:47:45;;;;;;;15.20;14.63;;;;;;;;;;5096805;28;20873;-70
2024/04/02 08:50:12;;;;;;;14.77;14.27;;;;;;;;;;5085922;28;20457;-71
2024/04/02 08:52:40;;;;;;;14.67;14.17;;;;;;;;;;5086588;28;20463;-68
2024/04/02 08:55:08;;;;;;;14.57;14.07;;;;;;;;;;5081639;28;20587;-69
2024/04/02 08:57:35;;;;;;;14.70;14.20;;;;;;;;;;5084220;28;20659;-69
2024/04/02 09:00:03;;;;;;;14.53;14.03;;;;;;;;;;5079671;28;20470;-70
2024/04/02 09:02:30;;;;;;;14.73;14.23;;;;;;;;;;5075976;28;20975;-70
2024/04/02 09:04:57;;;;;;;14.83;14.33;;;;;;;;;;5080647;28;20496;-70
2024/04/02 09:07:24;;;;;;;14.77;14.27;;;;;;;;;;5083976;28;20461;-71
2024/04/02 09:09:52;;;;;;;14.43;13.93;;;;;;;;;;5083909;28;20476;-70
2024/04/02 09:12:21;;;;;;;14.97;14.47;;;;;;;;;;5080595;28;20556;-69
2024/04/02 09:14:47;;;;;;;14.73;14.23;;;;;;;;;;5097654;28;20527;-69
2024/04/02 09:17:14;;;;;;;14.47;13.97;;;;;;;;;;5100843;28;20476;-70
2024/04/02 09:19:40;;;;;;;14.47;13.97;;;;;;;;;;5096439;28;21024;-70
2024/04/02 09:22:07;;;;;;;15.47;14.87;;;;;;;;;;5102644;28;20463;-70
2024/04/02 09:24:33;;;;;;;15.43;14.83;;;;;;;;;;5102035;28;20464;-70
2024/04/02 09:27:02;;;;;;;15.00;14.50;;;;;;;;;;5107889;28;20475;-69
2024/04/02 09:29:29;;;;;;;15.53;14.93;;;;;;;;;;5103848;28;20492;-69
2024/04/02 09:31:56;;;;;;;14.80;14.30;;;;;;;;;;5113944;28;20842;-69
2024/04/02 09:34:22;;;;;;;14.90;14.40;;;;;;;;;;5112799;28;21017;-69
2024/04/02 09:36:50;;;;;;;14.77;14.27;;;;;;;;;;5101672;28;20470;-72
2024/04/02 09:39:16;;;;;;;14.83;14.33;;;;;;;;;;5106687;28;20459;-71
2024/04/02 09:41:44;;;;;;;14.83;14.33;;;;;;;;;;5098745;28;20801;-71
2024/04/02 09:44:14;;;;;;;14.70;14.20;;;;;;;;;;5104848;28;20466;-71
2024/04/02 09:46:42;;;;;;;14.50;14.00;;;;;;;;;;5107656;28;20506;-71
2024/04/02 09:49:09;;;;;;;14.90;14.40;;;;;;;;;;5106769;28;20453;-70
2024/04/02 09:51:36;;;;;;;14.80;14.30;;;;;;;;;;5102932;28;21155;-70
2024/04/02 09:54:03;;;;;;;14.90;14.40;;;;;;;;;;5108480;28;20485;-70
2024/04/02 09:56:32;;;;;;;15.00;14.50;;;;;;;;;;5107815;28;20466;-70
2024/04/02 09:58:58;;;;;;;15.03;14.53;;;;;;;;;;5111522;28;20449;-71
2024/04/02 10:01:27;;;;;;;14.90;14.40;;;;;;;;;;5112128;27;20530;-69
2024/04/02 10:03:57;;;;;;;15.20;14.70;;;;;;;;;;5111285;28;20460;-70
2024/04/02 10:06:25;;;;;;;14.80;14.30;;;;;;;;;;5108090;28;20464;-71
2024/04/02 10:08:58;;;;;;;15.20;14.70;;;;;;;;;;5107078;28;20511;-71
2024/04/02 10:11:32;;;;;;;14.77;14.27;;;;;;;;;;5106982;28;20487;-71
2024/04/02 10:14:03;;;;;;;15.03;14.53;;;;;;;;;;5104035;28;20860;-71
2024/04/02 10:16:33;;;;;;;15.10;14.60;;;;;;;;;;5113282;27;21141;-71
2024/04/02 10:19:00;;;;;;;15.03;14.53;;;;;;;;;;5106886;27;20567;-72
2024/04/02 10:21:27;;;;;;;14.93;14.43;;;;;;;;;;5104200;28;20476;-72
2024/04/02 10:23:54;;;;;;;15.20;14.70;;;;;;;;;;5106328;28;20756;-71
2024/04/02 10:26:21;;;;;;;15.10;14.60;;;;;;;;;;5106226;28;20498;-70
2024/04/02 10:28:48;;;;;;;15.03;14.53;;;;;;;;;;5102532;28;20820;-70
2024/04/02 10:31:15;;;;;;;15.07;14.57;;;;;;;;;;5104431;27;20464;-71
2024/04/02 10:33:43;;;;;;;14.73;14.23;;;;;;;;;;5111371;28;20883;-71
2024/04/02 10:36:13;;;;;;;14.27;13.77;;;;;;;;;;5110230;28;20464;-70
2024/04/02 10:38:40;;;;;;;14.07;13.57;;;;;;;;;;5102221;28;20559;-70
2024/04/02 10:41:07;;;;;;;14.10;13.60;;;;;;;;;;5104841;28;20464;-71
2024/04/02 10:43:33;;;;;;;13.70;13.30;;;;;;;;;;5097167;28;20974;-69
2024/04/02 10:46:01;;;;;;;14.07;13.57;;;;;;;;;;5103480;28;20476;-70
2024/04/02 10:48:27;;;;;;;14.20;13.70;;;;;;;;;;5106745;28;20466;-69
2024/04/02 10:50:55;;;;;;;14.77;14.27;;;;;;;;;;5106038;28;20551;-71
2024/04/02 10:53:21;;;;;;;14.43;13.93;;;;;;;;;;5109904;28;20455;-70
2024/04/02 10:55:48;;;;;;;15.73;15.13;;;;;;;;;;5109594;28;20512;-69
2024/04/02 10:58:15;;;;;;;15.37;14.77;;;;;;;;;;5102529;28;20475;-70
2024/04/02 11:00:43;;;;;;;16.07;15.37;;;;;;;;;;5107293;27;20554;-68
2024/04/02 11:03:09;;;;;;;15.17;14.57;;;;;;;;;;5101719;28;21640;-70
2024/04/02 11:05:36;;;;;;;14.90;14.30;;;;;;;;;;5107677;28;20491;-70
2024/04/02 11:08:04;;;;;;;14.67;14.07;;;;;;;;;;5109099;28;20453;-69
2024/04/02 11:10:31;;;;;;;15.20;14.60;;;;;;;;;;5096226;28;20486;-69
2024/04/02 11:12:57;;;;;;;14.77;14.17;;;;;;;;;;5105854;28;20849;-69
2024/04/02 11:15:24;;;;;;;14.90;14.30;;;;;;;;;;5098471;28;20515;-70
2024/04/02 11:17:50;;;;;;;15.20;14.60;;;;;;;;;;5103025;28;20509;-70
2024/04/02 11:20:18;;;;;;;15.23;14.63;;;;;;;;;;5099865;28;20464;-70
2024/04/02 11:25:36;;;;;;;14.20;13.70;;;;;;;;;;5025573;28;20959;-70
2024/04/02 11:28:05;;;;;;;15.23;14.63;;;;;;;;;;5105167;28;21140;-69
2024/04/02 11:30:33;;;;;;;16.77;15.97;;;;;;;;;;5105403;27;20458;-69
2024/04/02 11:32:59;;;;;;;16.50;15.80;;;;;;;;;;5107292;28;20596;-69
2024/04/02 11:35:27;;;;;;;15.00;14.40;;;;;;;;;;5102206;28;20542;-69
2024/04/02 11:37:54;;;;;;;15.20;14.60;;;;;;;;;;5104458;28;20460;-70
2024/04/02 11:40:21;;;;;;;15.63;14.97;;;;;;;;;;5096611;28;20460;-69
2024/04/02 11:42:48;;;;;;;15.90;15.20;;;;;;;;;;5102168;28;20473;-69
2024/04/02 11:45:17;;;;;;;15.23;14.63;;;;;;;;;;5109590;28;20507;-69
2024/04/02 11:47:43;;;;;;;13.93;13.43;;;;;;;;;;5109475;28;20456;-71
2024/04/02 11:50:10;;;;;;;13.97;13.47;;;;;;;;;;5104022;28;20461;-69
2024/04/02 11:52:37;;;;;;;14.50;14.00;;;;;;;;;;5102556;28;20459;-70
2024/04/02 11:55:04;;;;;;;14.10;13.60;;;;;;;;;;5098049;28;20497;-71
2024/04/02 12:00:18;;;;;;;13.80;13.40;;;;;;;;;;5095566;27;20454;-71
2024/04/02 12:02:47;;;;;;;13.57;13.17;;;;;;;;;;5106160;28;20467;-70
2024/04/02 12:05:15;;;;;;;13.73;13.33;;;;;;;;;;5098771;28;20455;-70
2024/04/02 12:07:41;;;;;;;13.73;13.33;;;;;;;;;;5101483;28;20553;-69
2024/04/02 12:10:09;;;;;;;13.27;12.87;;;;;;;;;;5098792;28;20487;-69
2024/04/02 12:12:35;;;;;;;15.43;14.83;;;;;;;;;;5105189;28;20816;-70
2024/04/02 12:15:04;;;;;;;15.37;14.77;;;;;;;;;;5104495;28;20491;-70
2024/04/02 12:17:32;;;;;;;13.70;13.20;;;;;;;;;;5102219;28;20500;-69
2024/04/02 12:19:59;;;;;;;14.17;13.67;;;;;;;;;;5106040;28;20461;-68
2024/04/02 12:22:26;;;;;;;13.57;13.07;;;;;;;;;;5101924;28;20965;-69
2024/04/02 12:24:54;;;;;;;13.53;13.03;;;;;;;;;;5098331;28;20883;-69
2024/04/02 12:27:20;;;;;;;13.00;12.60;;;;;;;;;;5100541;28;20455;-68
2024/04/02 12:29:48;;;;;;;12.33;11.93;;;;;;;;;;5103678;28;20904;-69
2024/04/02 12:32:14;;;;;;;12.60;12.20;;;;;;;;;;5100430;27;21107;-69
2024/04/02 12:34:42;;;;;;;12.20;11.80;;;;;;;;;;5093587;28;20481;-69
2024/04/02 12:37:09;;;;;;;12.80;12.40;;;;;;;;;;5101686;28;20455;-70
2024/04/02 12:39:36;;;;;;;13.20;12.80;;;;;;;;;;5108092;28;20464;-70
2024/04/02 12:42:03;;;;;;;13.47;13.07;;;;;;;;;;5100611;27;20471;-70
2024/04/02 12:44:30;;;;;;;13.90;13.47;;;;;;;;;;5098110;28;20500;-69
2024/04/02 12:46:57;;;;;;;13.63;13.23;;;;;;;;;;5096918;28;20865;-71
2024/04/02 12:49:24;;;;;;;14.10;13.60;;;;;;;;;;5107583;28;20515;-70
2024/04/02 12:51:52;;;;;;;13.77;13.37;;;;;;;;;;5104002;28;20985;-70
2024/04/02 12:54:19;;;;;;;13.73;13.33;;;;;;;;;;5108518;28;20803;-71
2024/04/02 12:56:45;;;;;;;13.67;13.27;;;;;;;;;;5108110;28;20496;-72
2024/04/02 12:59:13;;;;;;;13.60;13.20;;;;;;;;;;5106225;28;20453;-71
2024/04/02 13:01:40;;;;;;;14.00;13.50;;;;;;;;;;5100548;28;20545;-71
2024/04/02 13:04:06;;;;;;;13.67;13.27;;;;;;;;;;5108822;28;20923;-70
2024/04/02 13:06:34;;;;;;;13.80;13.40;;;;;;;;;;5104875;28;20551;-71
2024/04/02 13:09:03;;;;;;;13.70;13.30;;;;;;;;;;5108169;28;20462;-71
2024/04/02 13:11:30;;;;;;;14.03;13.57;;;;;;;;;;5106879;28;20562;-71
2024/04/02 13:13:57;;;;;;;13.97;13.50;;;;;;;;;;5084964;28;20489;-69
2024/04/02 13:16:32;;;;;;;13.93;13.50;;;;;;;;;;5082162;28;20543;-71
2024/04/02 13:21:44;;;;;;;13.50;13.10;;;;;;;;;;5087745;28;20532;-70
2024/04/02 13:24:12;;;;;;;14.40;13.90;;;;;;;;;;5090223;28;20454;-70
2024/04/02 13:26:39;;;;;;;14.47;13.97;;;;;;;;;;5086986;28;20485;-71
2024/04/02 13:29:05;;;;;;;14.23;13.73;;;;;;;;;;5080668;28;20823;-72
2024/04/02 13:31:33;;;;;;;14.70;14.20;;;;;;;;;;5091224;28;20455;-70
2024/04/02 13:34:01;;;;;;;13.80;13.40;;;;;;;;;;5085943;28;20471;-71
2024/04/02 13:36:28;;;;;;;14.23;13.73;;;;;;;;;;5089063;28;20599;-71
2024/04/02 13:38:55;;;;;;;14.23;13.73;;;;;;;;;;5085661;28;20471;-70
2024/04/02 13:41:27;;;;;;;14.40;13.90;;;;;;;;;;5084045;28;20652;-73
2024/04/02 13:43:54;;;;;;;14.37;13.87;;;;;;;;;;5080525;28;20499;-71
2024/04/02 13:46:21;;;;;;;14.40;13.90;;;;;;;;;;5087620;28;20850;-71
2024/04/02 13:48:49;;;;;;;14.63;14.13;;;;;;;;;;5091049;28;20462;-72
2024/04/02 13:51:16;;;;;;;14.60;14.10;;;;;;;;;;5086113;28;20903;-71
2024/04/02 13:53:44;;;;;;;14.80;14.30;;;;;;;;;;5086330;28;20842;-71
2024/04/02 13:56:11;;;;;;;14.50;14.00;;;;;;;;;;5087571;28;20602;-73
2024/04/02 13:58:42;;;;;;;14.50;14.00;;;;;;;;;;5081979;28;20471;-73
2024/04/02 14:01:10;;;;;;;15.07;14.53;;;;;;;;;;5086792;28;20982;-71
2024/04/02 14:03:37;;;;;;;16.50;15.80;;;;;;;;;;5089774;28;20448;-71
2024/04/02 14:06:05;;;;;;;17.00;16.20;;;;;;;;;;5087339;28;20845;-70
2024/04/02 14:08:31;;;;;;;16.90;16.10;;;;;;;;;;5089575;28;20462;-69
2024/04/02 14:11:03;;;;;;;16.17;15.47;;;;;;;;;;5089008;28;20504;-71
2024/04/02 14:13:30;;;;;;;16.37;15.67;;;;;;;;;;5074897;28;20527;-71
2024/04/02 14:15:59;;;;;;;16.03;15.43;;;;;;;;;;5080839;28;20484;-69
2024/04/02 14:18:25;;;;;;;14.13;13.63;;;;;;;;;;5084405;28;20464;-70
2024/04/02 14:20:57;;;;;;;13.60;13.20;;;;;;;;;;5079611;28;20470;-72
2024/04/02 14:23:26;;;;;;;14.03;13.53;;;;;;;;;;5081281;28;20836;-70
2024/04/02 14:25:54;;;;;;;14.80;14.30;;;;;;;;;;5079892;28;20834;-72
2024/04/02 14:28:20;;;;;;;13.73;13.33;;;;;;;;;;5079955;28;20552;-72
2024/04/02 14:30:47;;;;;;;14.10;13.60;;;;;;;;;;5079524;28;20818;-70
2024/04/02 14:33:15;;;;;;;14.10;13.60;;;;;;;;;;5085538;28;20443;-69